Terminal Aerodrome Forecast
Issued by NWS Bismarck, ND

Home | Current Version | Previous Version | Text Only | Print | Product List | Glossary Off
Versions: 1 2 3 4 5 6 7 8 9 10 11 12 13 14 15 16 17 18 19 20 21 22

679
FTUS43 KBIS 232326
TAFISN
TAF
KISN 232326Z 2400/2424 08006KT P6SM VCTS BKN070CB
      TEMPO 2403/2407 VRB20G35KT 3SM TSRA BKN040CB OVC100
     FM240700 09006KT P6SM FEW050 SCT200 WS020/18030KT
     FM241600 23008KT P6SM FEW045 SCT200
     FM241900 24009KT P6SM VCSH SCT050 BKN090=

USA.gov is the U.S. government's official web portal to all federal, state and local government web resources and services.